sensor_id;sensor_type;location;lat;lon;timestamp;temperature;humidity
25949;DHT22;13961;51.178;4.448;2023-05-02T00:00:32;13.50;99.90
25949;DHT22;13961;51.178;4.448;2023-05-02T00:02:59;13.50;99.90
25949;DHT22;13961;51.178;4.448;2023-05-02T00:05:25;13.60;99.90
25949;DHT22;13961;51.178;4.448;2023-05-02T00:07:52;13.50;99.90
25949;DHT22;13961;51.178;4.448;2023-05-02T00:10:18;13.50;99.90
25949;DHT22;13961;51.178;4.448;2023-05-02T00:12:44;13.40;99.90
25949;DHT22;13961;51.178;4.448;2023-05-02T00:15:10;13.00;99.90
25949;DHT22;13961;51.178;4.448;2023-05-02T00:17:35;13.10;99.90
25949;DHT22;13961;51.178;4.448;2023-05-02T00:20:01;13.10;99.90
25949;DHT22;13961;51.178;4.448;2023-05-02T00:22:29;13.10;99.90
25949;DHT22;13961;51.178;4.448;2023-05-02T00:24:56;13.10;99.90
25949;DHT22;13961;51.178;4.448;2023-05-02T00:27:22;13.10;99.90
25949;DHT22;13961;51.178;4.448;2023-05-02T00:29:48;13.10;99.90
25949;DHT22;13961;51.178;4.448;2023-05-02T00:32:13;12.90;99.90
25949;DHT22;13961;51.178;4.448;2023-05-02T00:34:39;12.90;99.90
25949;DHT22;13961;51.178;4.448;2023-05-02T00:37:05;13.00;99.90
25949;DHT22;13961;51.178;4.448;2023-05-02T00:39:35;13.20;99.90
25949;DHT22;13961;51.178;4.448;2023-05-02T00:42:03;13.10;99.90
25949;DHT22;13961;51.178;4.448;2023-05-02T00:44:29;13.20;99.90
25949;DHT22;13961;51.178;4.448;2023-05-02T00:46:57;13.20;99.90
25949;DHT22;13961;51.178;4.448;2023-05-02T00:49:23;13.20;99.90
25949;DHT22;13961;51.178;4.448;2023-05-02T00:51:53;13.00;99.90
25949;DHT22;13961;51.178;4.448;2023-05-02T00:54:18;13.00;99.90
25949;DHT22;13961;51.178;4.448;2023-05-02T00:56:45;12.90;99.90
25949;DHT22;13961;51.178;4.448;2023-05-02T00:59:12;13.00;99.90
25949;DHT22;13961;51.178;4.448;2023-05-02T01:13:03;12.90;99.90
25949;DHT22;13961;51.178;4.448;2023-05-02T01:15:32;13.00;99.90
25949;DHT22;13961;51.178;4.448;2023-05-02T01:18:00;13.00;99.90
25949;DHT22;13961;51.178;4.448;2023-05-02T01:20:27;13.00;99.90
25949;DHT22;13961;51.178;4.448;2023-05-02T01:22:58;13.00;99.90
25949;DHT22;13961;51.178;4.448;2023-05-02T01:25:32;12.80;99.90
25949;DHT22;13961;51.178;4.448;2023-05-02T01:28:26;12.80;99.90
25949;DHT22;13961;51.178;4.448;2023-05-02T01:30:54;12.70;99.90
25949;DHT22;13961;51.178;4.448;2023-05-02T01:33:22;12.60;99.90
25949;DHT22;13961;51.178;4.448;2023-05-02T01:35:50;12.40;99.90
25949;DHT22;13961;51.178;4.448;2023-05-02T01:38:18;12.40;99.90
25949;DHT22;13961;51.178;4.448;2023-05-02T01:40:44;12.40;99.90
25949;DHT22;13961;51.178;4.448;2023-05-02T01:43:11;12.20;99.90
25949;DHT22;13961;51.178;4.448;2023-05-02T01:45:38;12.00;99.90
25949;DHT22;13961;51.178;4.448;2023-05-02T01:48:07;12.10;99.90
25949;DHT22;13961;51.178;4.448;2023-05-02T01:50:35;12.10;99.90
25949;DHT22;13961;51.178;4.448;2023-05-02T01:53:03;12.20;99.90
25949;DHT22;13961;51.178;4.448;2023-05-02T01:55:30;12.30;99.90
25949;DHT22;13961;51.178;4.448;2023-05-02T01:57:58;12.20;99.90
25949;DHT22;13961;51.178;4.448;2023-05-02T02:00:25;12.00;99.90
25949;DHT22;13961;51.178;4.448;2023-05-02T02:02:52;12.00;99.90
25949;DHT22;13961;51.178;4.448;2023-05-02T02:05:21;12.10;99.90
25949;DHT22;13961;51.178;4.448;2023-05-02T02:07:47;12.10;99.90
25949;DHT22;13961;51.178;4.448;2023-05-02T02:10:13;12.30;99.90
25949;DHT22;13961;51.178;4.448;2023-05-02T02:12:41;12.20;99.90
25949;DHT22;13961;51.178;4.448;2023-05-02T02:15:27;12.30;99.90
25949;DHT22;13961;51.178;4.448;2023-05-02T02:18:04;12.30;99.90
25949;DHT22;13961;51.178;4.448;2023-05-02T02:20:32;12.40;99.90
25949;DHT22;13961;51.178;4.448;2023-05-02T02:23:04;12.40;99.90
25949;DHT22;13961;51.178;4.448;2023-05-02T02:25:31;12.40;99.90
25949;DHT22;13961;51.178;4.448;2023-05-02T02:27:58;12.40;99.90
25949;DHT22;13961;51.178;4.448;2023-05-02T02:30:25;12.40;99.90
25949;DHT22;13961;51.178;4.448;2023-05-02T02:32:52;12.40;99.90
25949;DHT22;13961;51.178;4.448;2023-05-02T02:35:18;12.60;99.90
25949;DHT22;13961;51.178;4.448;2023-05-02T02:37:53;12.60;99.90
25949;DHT22;13961;51.178;4.448;2023-05-02T02:40:46;12.70;99.90
25949;DHT22;13961;51.178;4.448;2023-05-02T02:43:38;12.70;99.90
25949;DHT22;13961;51.178;4.448;2023-05-02T02:46:35;12.80;99.90
25949;DHT22;13961;51.178;4.448;2023-05-02T02:49:28;12.80;99.90
25949;DHT22;13961;51.178;4.448;2023-05-02T02:57:32;12.50;99.90
25949;DHT22;13961;51.178;4.448;2023-05-02T03:00:10;12.20;99.90
25949;DHT22;13961;51.178;4.448;2023-05-02T03:02:40;12.20;99.90
25949;DHT22;13961;51.178;4.448;2023-05-02T03:05:10;12.00;99.90
25949;DHT22;13961;51.178;4.448;2023-05-02T03:07:36;11.90;99.90
25949;DHT22;13961;51.178;4.448;2023-05-02T03:10:02;11.80;99.90
25949;DHT22;13961;51.178;4.448;2023-05-02T03:12:29;11.90;99.90
25949;DHT22;13961;51.178;4.448;2023-05-02T03:17:39;12.20;99.90
25949;DHT22;13961;51.178;4.448;2023-05-02T03:20:05;12.20;99.90
25949;DHT22;13961;51.178;4.448;2023-05-02T03:22:32;12.20;99.90
25949;DHT22;13961;51.178;4.448;2023-05-02T03:24:57;12.30;99.90
25949;DHT22;13961;51.178;4.448;2023-05-02T03:27:23;12.40;99.90
25949;DHT22;13961;51.178;4.448;2023-05-02T03:29:49;12.60;99.90
25949;DHT22;13961;51.178;4.448;2023-05-02T03:32:14;12.70;99.90
25949;DHT22;13961;51.178;4.448;2023-05-02T03:34:42;12.60;99.90
25949;DHT22;13961;51.178;4.448;2023-05-02T03:37:07;12.50;99.90
25949;DHT22;13961;51.178;4.448;2023-05-02T03:39:33;12.50;99.90
25949;DHT22;13961;51.178;4.448;2023-05-02T03:41:59;12.50;99.90
25949;DHT22;13961;51.178;4.448;2023-05-02T03:44:26;12.50;99.90
25949;DHT22;13961;51.178;4.448;2023-05-02T03:46:53;12.50;99.90
25949;DHT22;13961;51.178;4.448;2023-05-02T03:49:19;12.50;99.90
25949;DHT22;13961;51.178;4.448;2023-05-02T03:51:44;12.50;99.90
25949;DHT22;13961;51.178;4.448;2023-05-02T03:54:10;12.50;99.90
25949;DHT22;13961;51.178;4.448;2023-05-02T03:56:36;12.50;99.90
25949;DHT22;13961;51.178;4.448;2023-05-02T03:59:02;12.40;99.90
25949;DHT22;13961;51.178;4.448;2023-05-02T04:01:28;12.50;99.90
25949;DHT22;13961;51.178;4.448;2023-05-02T04:03:54;12.50;99.90
25949;DHT22;13961;51.178;4.448;2023-05-02T04:06:20;12.50;99.90
25949;DHT22;13961;51.178;4.448;2023-05-02T04:08:45;12.50;99.90
25949;DHT22;13961;51.178;4.448;2023-05-02T04:11:11;12.20;99.90
25949;DHT22;13961;51.178;4.448;2023-05-02T04:13:38;12.10;99.90
25949;DHT22;13961;51.178;4.448;2023-05-02T04:16:06;12.20;99.90
25949;DHT22;13961;51.178;4.448;2023-05-02T04:18:34;12.20;99.90
25949;DHT22;13961;51.178;4.448;2023-05-02T04:21:00;12.10;99.90
25949;DHT22;13961;51.178;4.448;2023-05-02T04:23:27;12.10;99.90
25949;DHT22;13961;51.178;4.448;2023-05-02T04:25:54;12.00;99.90
25949;DHT22;13961;51.178;4.448;2023-05-02T04:28:21;12.10;99.90
25949;DHT22;13961;51.178;4.448;2023-05-02T04:30:48;11.90;99.90
25949;DHT22;13961;51.178;4.448;2023-05-02T04:33:15;12.10;99.90
25949;DHT22;13961;51.178;4.448;2023-05-02T04:35:41;12.20;99.90
25949;DHT22;13961;51.178;4.448;2023-05-02T04:38:07;12.10;99.90
25949;DHT22;13961;51.178;4.448;2023-05-02T04:40:33;11.90;99.90
25949;DHT22;13961;51.178;4.448;2023-05-02T04:42:59;12.00;99.90
25949;DHT22;13961;51.178;4.448;2023-05-02T04:45:25;11.90;99.90
25949;DHT22;13961;51.178;4.448;2023-05-02T04:47:52;12.00;99.90
25949;DHT22;13961;51.178;4.448;2023-05-02T04:50:17;12.10;99.90
25949;DHT22;13961;51.178;4.448;2023-05-02T04:52:44;12.10;99.90
25949;DHT22;13961;51.178;4.448;2023-05-02T04:55:10;11.90;99.90
25949;DHT22;13961;51.178;4.448;2023-05-02T04:57:35;12.00;99.90
25949;DHT22;13961;51.178;4.448;2023-05-02T05:00:01;11.90;99.90
25949;DHT22;13961;51.178;4.448;2023-05-02T05:02:27;12.00;99.90
25949;DHT22;13961;51.178;4.448;2023-05-02T05:04:52;12.00;99.90
25949;DHT22;13961;51.178;4.448;2023-05-02T05:07:18;12.00;99.90
25949;DHT22;13961;51.178;4.448;2023-05-02T05:09:44;12.20;99.90
25949;DHT22;13961;51.178;4.448;2023-05-02T05:12:10;12.40;99.90
25949;DHT22;13961;51.178;4.448;2023-05-02T05:14:36;12.50;99.90
25949;DHT22;13961;51.178;4.448;2023-05-02T05:17:05;12.60;99.90
25949;DHT22;13961;51.178;4.448;2023-05-02T05:19:31;12.40;99.90
25949;DHT22;13961;51.178;4.448;2023-05-02T05:21:57;12.40;99.90
25949;DHT22;13961;51.178;4.448;2023-05-02T05:24:24;12.20;99.90
25949;DHT22;13961;51.178;4.448;2023-05-02T05:26:50;12.20;99.90
25949;DHT22;13961;51.178;4.448;2023-05-02T05:29:17;12.20;99.90
25949;DHT22;13961;51.178;4.448;2023-05-02T05:31:43;12.20;99.90
25949;DHT22;13961;51.178;4.448;2023-05-02T05:34:09;12.20;99.90
25949;DHT22;13961;51.178;4.448;2023-05-02T05:36:34;12.20;99.90
25949;DHT22;13961;51.178;4.448;2023-05-02T05:39:01;12.30;99.90
25949;DHT22;13961;51.178;4.448;2023-05-02T05:41:27;12.30;99.90
25949;DHT22;13961;51.178;4.448;2023-05-02T05:43:53;12.40;99.90
25949;DHT22;13961;51.178;4.448;2023-05-02T05:46:20;12.10;99.90
25949;DHT22;13961;51.178;4.448;2023-05-02T05:48:46;11.90;99.90
25949;DHT22;13961;51.178;4.448;2023-05-02T05:51:12;11.90;99.90
25949;DHT22;13961;51.178;4.448;2023-05-02T05:53:37;11.80;99.90
25949;DHT22;13961;51.178;4.448;2023-05-02T05:56:10;11.80;99.90
25949;DHT22;13961;51.178;4.448;2023-05-02T05:58:37;11.70;99.90
25949;DHT22;13961;51.178;4.448;2023-05-02T06:01:04;11.50;99.90
25949;DHT22;13961;51.178;4.448;2023-05-02T06:03:30;11.60;99.90
25949;DHT22;13961;51.178;4.448;2023-05-02T06:05:56;11.70;99.90
25949;DHT22;13961;51.178;4.448;2023-05-02T06:08:22;11.90;99.90
25949;DHT22;13961;51.178;4.448;2023-05-02T06:10:48;12.10;99.90
25949;DHT22;13961;51.178;4.448;2023-05-02T06:13:13;12.20;99.90
25949;DHT22;13961;51.178;4.448;2023-05-02T06:15:39;12.20;99.90
25949;DHT22;13961;51.178;4.448;2023-05-02T06:18:06;12.20;99.90
25949;DHT22;13961;51.178;4.448;2023-05-02T06:20:34;12.50;99.90
25949;DHT22;13961;51.178;4.448;2023-05-02T06:22:59;12.40;99.90
25949;DHT22;13961;51.178;4.448;2023-05-02T06:25:26;12.50;99.90
25949;DHT22;13961;51.178;4.448;2023-05-02T06:27:52;12.80;99.90
25949;DHT22;13961;51.178;4.448;2023-05-02T06:30:17;13.00;99.90
25949;DHT22;13961;51.178;4.448;2023-05-02T06:32:43;13.00;99.90
25949;DHT22;13961;51.178;4.448;2023-05-02T06:35:10;13.10;99.90
25949;DHT22;13961;51.178;4.448;2023-05-02T06:37:36;13.90;99.90
25949;DHT22;13961;51.178;4.448;2023-05-02T06:40:02;15.10;99.90
25949;DHT22;13961;51.178;4.448;2023-05-02T06:42:28;15.80;99.90
25949;DHT22;13961;51.178;4.448;2023-05-02T06:44:54;16.20;99.90
25949;DHT22;13961;51.178;4.448;2023-05-02T06:47:20;15.80;99.90
25949;DHT22;13961;51.178;4.448;2023-05-02T06:49:50;15.50;99.90
25949;DHT22;13961;51.178;4.448;2023-05-02T06:52:16;15.00;99.90
25949;DHT22;13961;51.178;4.448;2023-05-02T06:54:42;14.90;99.90
25949;DHT22;13961;51.178;4.448;2023-05-02T06:57:07;15.10;99.90
25949;DHT22;13961;51.178;4.448;2023-05-02T06:59:33;15.10;99.90
25949;DHT22;13961;51.178;4.448;2023-05-02T07:01:59;15.20;99.90
25949;DHT22;13961;51.178;4.448;2023-05-02T07:04:25;15.20;99.90
25949;DHT22;13961;51.178;4.448;2023-05-02T07:06:51;15.40;99.90
25949;DHT22;13961;51.178;4.448;2023-05-02T07:09:16;15.60;99.90
25949;DHT22;13961;51.178;4.448;2023-05-02T07:11:42;15.40;99.90
25949;DHT22;13961;51.178;4.448;2023-05-02T07:14:08;15.50;99.90
25949;DHT22;13961;51.178;4.448;2023-05-02T07:16:34;15.60;99.90
25949;DHT22;13961;51.178;4.448;2023-05-02T07:19:00;15.40;99.90
25949;DHT22;13961;51.178;4.448;2023-05-02T07:21:26;15.50;99.90
25949;DHT22;13961;51.178;4.448;2023-05-02T07:23:51;16.80;99.90
25949;DHT22;13961;51.178;4.448;2023-05-02T07:26:19;19.10;99.90
25949;DHT22;13961;51.178;4.448;2023-05-02T07:28:45;19.80;99.90
25949;DHT22;13961;51.178;4.448;2023-05-02T07:31:11;19.80;99.90
25949;DHT22;13961;51.178;4.448;2023-05-02T07:33:36;19.80;99.90
25949;DHT22;13961;51.178;4.448;2023-05-02T07:36:02;20.90;99.90
25949;DHT22;13961;51.178;4.448;2023-05-02T07:38:28;21.30;99.90
25949;DHT22;13961;51.178;4.448;2023-05-02T07:40:57;21.90;99.90
25949;DHT22;13961;51.178;4.448;2023-05-02T07:43:23;21.00;99.90
25949;DHT22;13961;51.178;4.448;2023-05-02T07:45:49;21.20;99.90
25949;DHT22;13961;51.178;4.448;2023-05-02T07:48:15;21.10;99.90
25949;DHT22;13961;51.178;4.448;2023-05-02T07:50:40;20.30;99.90
25949;DHT22;13961;51.178;4.448;2023-05-02T07:53:06;20.70;99.90
25949;DHT22;13961;51.178;4.448;2023-05-02T07:55:32;20.20;99.90
25949;DHT22;13961;51.178;4.448;2023-05-02T07:57:58;19.60;99.90
25949;DHT22;13961;51.178;4.448;2023-05-02T08:00:24;18.90;99.90
25949;DHT22;13961;51.178;4.448;2023-05-02T08:02:51;18.50;99.90
25949;DHT22;13961;51.178;4.448;2023-05-02T08:05:17;18.30;99.90
25949;DHT22;13961;51.178;4.448;2023-05-02T08:07:43;18.20;99.90
25949;DHT22;13961;51.178;4.448;2023-05-02T08:10:09;18.20;99.90
25949;DHT22;13961;51.178;4.448;2023-05-02T08:12:39;17.80;99.90
25949;DHT22;13961;51.178;4.448;2023-05-02T08:15:06;17.40;99.90
25949;DHT22;13961;51.178;4.448;2023-05-02T08:17:32;18.50;99.90
25949;DHT22;13961;51.178;4.448;2023-05-02T08:19:59;19.20;99.90
25949;DHT22;13961;51.178;4.448;2023-05-02T08:22:25;18.90;99.90
25949;DHT22;13961;51.178;4.448;2023-05-02T08:24:52;19.10;99.90
25949;DHT22;13961;51.178;4.448;2023-05-02T08:27:18;19.20;99.90
25949;DHT22;13961;51.178;4.448;2023-05-02T08:29:43;20.30;99.90
25949;DHT22;13961;51.178;4.448;2023-05-02T08:32:10;20.10;99.90
25949;DHT22;13961;51.178;4.448;2023-05-02T08:34:35;18.70;99.90
25949;DHT22;13961;51.178;4.448;2023-05-02T08:37:06;18.80;99.90
25949;DHT22;13961;51.178;4.448;2023-05-02T08:39:32;20.10;99.90
25949;DHT22;13961;51.178;4.448;2023-05-02T08:41:57;20.20;99.90
25949;DHT22;13961;51.178;4.448;2023-05-02T08:44:23;19.60;99.90
25949;DHT22;13961;51.178;4.448;2023-05-02T08:46:50;18.80;99.90
25949;DHT22;13961;51.178;4.448;2023-05-02T08:49:17;18.20;99.90
25949;DHT22;13961;51.178;4.448;2023-05-02T08:51:44;17.30;99.90
25949;DHT22;13961;51.178;4.448;2023-05-02T08:54:11;17.80;99.90
25949;DHT22;13961;51.178;4.448;2023-05-02T08:56:41;19.00;99.90
25949;DHT22;13961;51.178;4.448;2023-05-02T08:59:07;19.10;99.90
25949;DHT22;13961;51.178;4.448;2023-05-02T09:01:33;19.70;99.90
25949;DHT22;13961;51.178;4.448;2023-05-02T09:04:00;19.60;99.90
25949;DHT22;13961;51.178;4.448;2023-05-02T09:06:26;18.60;99.90
25949;DHT22;13961;51.178;4.448;2023-05-02T09:08:53;19.00;99.90
25949;DHT22;13961;51.178;4.448;2023-05-02T09:11:19;18.60;99.90
25949;DHT22;13961;51.178;4.448;2023-05-02T09:13:50;17.90;99.90
25949;DHT22;13961;51.178;4.448;2023-05-02T09:16:24;17.80;99.90
25949;DHT22;13961;51.178;4.448;2023-05-02T09:18:53;18.20;99.90
25949;DHT22;13961;51.178;4.448;2023-05-02T09:21:24;18.50;99.90
25949;DHT22;13961;51.178;4.448;2023-05-02T09:23:55;18.00;99.90
25949;DHT22;13961;51.178;4.448;2023-05-02T09:26:26;17.60;99.90
25949;DHT22;13961;51.178;4.448;2023-05-02T09:29:00;17.40;99.90
25949;DHT22;13961;51.178;4.448;2023-05-02T09:31:34;17.20;99.90
25949;DHT22;13961;51.178;4.448;2023-05-02T09:34:11;16.30;99.90
25949;DHT22;13961;51.178;4.448;2023-05-02T09:36:42;16.60;99.90
25949;DHT22;13961;51.178;4.448;2023-05-02T09:39:16;16.60;99.90
25949;DHT22;13961;51.178;4.448;2023-05-02T09:41:44;16.20;99.90
25949;DHT22;13961;51.178;4.448;2023-05-02T09:44:11;16.30;99.90
25949;DHT22;13961;51.178;4.448;2023-05-02T09:46:45;16.20;99.90
25949;DHT22;13961;51.178;4.448;2023-05-02T09:49:11;15.90;99.90
25949;DHT22;13961;51.178;4.448;2023-05-02T09:51:39;15.80;99.90
25949;DHT22;13961;51.178;4.448;2023-05-02T09:54:05;15.90;99.90
25949;DHT22;13961;51.178;4.448;2023-05-02T09:56:36;16.30;99.90
25949;DHT22;13961;51.178;4.448;2023-05-02T09:59:16;16.60;99.90
25949;DHT22;13961;51.178;4.448;2023-05-02T10:01:42;17.10;99.90
25949;DHT22;13961;51.178;4.448;2023-05-02T10:04:14;16.90;99.90
25949;DHT22;13961;51.178;4.448;2023-05-02T10:06:43;17.10;99.90
25949;DHT22;13961;51.178;4.448;2023-05-02T10:09:10;16.70;99.90
25949;DHT22;13961;51.178;4.448;2023-05-02T10:11:41;16.50;99.90
25949;DHT22;13961;51.178;4.448;2023-05-02T10:14:08;16.40;99.90
25949;DHT22;13961;51.178;4.448;2023-05-02T10:16:37;16.50;99.90
25949;DHT22;13961;51.178;4.448;2023-05-02T10:19:11;16.90;99.90
25949;DHT22;13961;51.178;4.448;2023-05-02T10:21:43;17.00;99.90
25949;DHT22;13961;51.178;4.448;2023-05-02T10:24:10;16.70;99.90
25949;DHT22;13961;51.178;4.448;2023-05-02T10:26:37;16.70;99.90
25949;DHT22;13961;51.178;4.448;2023-05-02T10:29:03;16.60;99.90
25949;DHT22;13961;51.178;4.448;2023-05-02T10:31:33;16.50;99.90
25949;DHT22;13961;51.178;4.448;2023-05-02T10:34:00;16.50;99.90
25949;DHT22;13961;51.178;4.448;2023-05-02T10:36:27;16.50;99.90
25949;DHT22;13961;51.178;4.448;2023-05-02T10:38:54;16.60;99.90
25949;DHT22;13961;51.178;4.448;2023-05-02T10:41:23;16.70;99.90
25949;DHT22;13961;51.178;4.448;2023-05-02T10:43:52;16.80;99.90
25949;DHT22;13961;51.178;4.448;2023-05-02T10:46:38;16.90;99.90
25949;DHT22;13961;51.178;4.448;2023-05-02T10:49:11;17.10;99.90
25949;DHT22;13961;51.178;4.448;2023-05-02T10:51:39;17.10;99.90
25949;DHT22;13961;51.178;4.448;2023-05-02T10:54:22;16.60;99.90
25949;DHT22;13961;51.178;4.448;2023-05-02T10:57:04;16.70;99.90
25949;DHT22;13961;51.178;4.448;2023-05-02T10:59:37;17.30;99.90
25949;DHT22;13961;51.178;4.448;2023-05-02T11:05:05;17.80;99.90
25949;DHT22;13961;51.178;4.448;2023-05-02T11:07:35;17.80;99.90
25949;DHT22;13961;51.178;4.448;2023-05-02T11:12:52;17.20;99.90
25949;DHT22;13961;51.178;4.448;2023-05-02T11:18:10;17.60;99.90
25949;DHT22;13961;51.178;4.448;2023-05-02T11:20:37;17.30;99.90
25949;DHT22;13961;51.178;4.448;2023-05-02T11:34:02;17.80;99.90
25949;DHT22;13961;51.178;4.448;2023-05-02T11:36:29;18.10;99.90
25949;DHT22;13961;51.178;4.448;2023-05-02T11:38:55;18.00;99.90
25949;DHT22;13961;51.178;4.448;2023-05-02T11:41:22;17.90;99.90
25949;DHT22;13961;51.178;4.448;2023-05-02T11:43:47;18.00;99.90
25949;DHT22;13961;51.178;4.448;2023-05-02T11:46:26;18.20;99.90
25949;DHT22;13961;51.178;4.448;2023-05-02T11:48:53;18.10;99.90
25949;DHT22;13961;51.178;4.448;2023-05-02T11:51:22;17.80;99.90
25949;DHT22;13961;51.178;4.448;2023-05-02T11:53:47;17.50;99.90
25949;DHT22;13961;51.178;4.448;2023-05-02T11:56:14;17.20;99.90
25949;DHT22;13961;51.178;4.448;2023-05-02T11:58:40;17.30;99.90
25949;DHT22;13961;51.178;4.448;2023-05-02T12:01:12;17.50;99.90
25949;DHT22;13961;51.178;4.448;2023-05-02T12:03:38;17.60;99.90
25949;DHT22;13961;51.178;4.448;2023-05-02T12:06:15;17.40;99.90
25949;DHT22;13961;51.178;4.448;2023-05-02T12:08:43;17.00;99.90
25949;DHT22;13961;51.178;4.448;2023-05-02T12:11:12;16.70;99.90
25949;DHT22;13961;51.178;4.448;2023-05-02T12:13:47;16.80;99.90
25949;DHT22;13961;51.178;4.448;2023-05-02T12:16:13;17.00;99.90
25949;DHT22;13961;51.178;4.448;2023-05-02T12:18:39;17.20;99.90
25949;DHT22;13961;51.178;4.448;2023-05-02T12:21:05;17.70;99.90
25949;DHT22;13961;51.178;4.448;2023-05-02T12:23:32;18.00;99.90
25949;DHT22;13961;51.178;4.448;2023-05-02T12:25:58;17.90;99.60
25949;DHT22;13961;51.178;4.448;2023-05-02T12:28:24;17.80;99.90
25949;DHT22;13961;51.178;4.448;2023-05-02T12:30:50;18.00;99.90
25949;DHT22;13961;51.178;4.448;2023-05-02T12:33:17;18.10;99.90
25949;DHT22;13961;51.178;4.448;2023-05-02T12:35:43;18.30;99.90
25949;DHT22;13961;51.178;4.448;2023-05-02T12:38:18;18.20;99.80
25949;DHT22;13961;51.178;4.448;2023-05-02T12:40:51;17.80;99.90
25949;DHT22;13961;51.178;4.448;2023-05-02T12:43:18;16.80;99.90
25949;DHT22;13961;51.178;4.448;2023-05-02T12:45:44;16.70;99.90
25949;DHT22;13961;51.178;4.448;2023-05-02T12:48:25;17.10;99.90
25949;DHT22;13961;51.178;4.448;2023-05-02T12:50:53;17.10;99.90
25949;DHT22;13961;51.178;4.448;2023-05-02T12:53:42;17.40;99.90
25949;DHT22;13961;51.178;4.448;2023-05-02T12:56:09;17.60;99.90
25949;DHT22;13961;51.178;4.448;2023-05-02T12:58:47;17.60;99.90
25949;DHT22;13961;51.178;4.448;2023-05-02T13:01:14;17.50;99.90
25949;DHT22;13961;51.178;4.448;2023-05-02T13:03:40;17.30;99.90
25949;DHT22;13961;51.178;4.448;2023-05-02T13:06:06;17.10;99.90
25949;DHT22;13961;51.178;4.448;2023-05-02T13:08:33;16.90;99.90
25949;DHT22;13961;51.178;4.448;2023-05-02T13:11:00;17.10;99.90
25949;DHT22;13961;51.178;4.448;2023-05-02T13:13:26;17.40;99.90
25949;DHT22;13961;51.178;4.448;2023-05-02T13:15:51;17.80;99.90
25949;DHT22;13961;51.178;4.448;2023-05-02T13:18:17;17.70;99.20
25949;DHT22;13961;51.178;4.448;2023-05-02T13:20:43;17.60;99.90
25949;DHT22;13961;51.178;4.448;2023-05-02T13:23:08;17.70;99.90
25949;DHT22;13961;51.178;4.448;2023-05-02T13:25:34;17.70;99.60
25949;DHT22;13961;51.178;4.448;2023-05-02T13:28:00;17.40;99.90
25949;DHT22;13961;51.178;4.448;2023-05-02T13:30:26;17.30;99.70
25949;DHT22;13961;51.178;4.448;2023-05-02T13:32:51;17.40;99.80
25949;DHT22;13961;51.178;4.448;2023-05-02T13:35:17;17.60;99.90
25949;DHT22;13961;51.178;4.448;2023-05-02T13:37:43;17.80;99.30
25949;DHT22;13961;51.178;4.448;2023-05-02T13:40:09;17.90;98.60
25949;DHT22;13961;51.178;4.448;2023-05-02T13:42:36;18.00;98.30
25949;DHT22;13961;51.178;4.448;2023-05-02T13:45:01;17.90;98.70
25949;DHT22;13961;51.178;4.448;2023-05-02T13:47:29;17.90;98.10
25949;DHT22;13961;51.178;4.448;2023-05-02T13:49:55;17.80;98.00
25949;DHT22;13961;51.178;4.448;2023-05-02T13:52:21;17.80;97.60
25949;DHT22;13961;51.178;4.448;2023-05-02T13:54:47;17.70;98.10
25949;DHT22;13961;51.178;4.448;2023-05-02T13:57:13;17.70;99.10
25949;DHT22;13961;51.178;4.448;2023-05-02T13:59:38;17.80;98.50
25949;DHT22;13961;51.178;4.448;2023-05-02T14:02:04;17.60;97.90
25949;DHT22;13961;51.178;4.448;2023-05-02T14:04:30;17.70;98.30
25949;DHT22;13961;51.178;4.448;2023-05-02T14:06:56;17.70;97.40
25949;DHT22;13961;51.178;4.448;2023-05-02T14:09:21;17.80;97.50
25949;DHT22;13961;51.178;4.448;2023-05-02T14:11:47;18.00;98.10
25949;DHT22;13961;51.178;4.448;2023-05-02T14:14:14;17.90;97.20
25949;DHT22;13961;51.178;4.448;2023-05-02T14:16:40;18.30;97.10
25949;DHT22;13961;51.178;4.448;2023-05-02T14:19:05;18.30;97.20
25949;DHT22;13961;51.178;4.448;2023-05-02T14:21:31;18.00;96.80
25949;DHT22;13961;51.178;4.448;2023-05-02T14:23:57;18.10;98.40
25949;DHT22;13961;51.178;4.448;2023-05-02T14:26:23;17.70;97.50
25949;DHT22;13961;51.178;4.448;2023-05-02T14:28:48;17.90;97.70
25949;DHT22;13961;51.178;4.448;2023-05-02T14:31:14;17.80;97.50
25949;DHT22;13961;51.178;4.448;2023-05-02T14:33:40;17.70;97.50
25949;DHT22;13961;51.178;4.448;2023-05-02T14:36:06;17.60;97.70
25949;DHT22;13961;51.178;4.448;2023-05-02T14:38:31;17.70;97.60
25949;DHT22;13961;51.178;4.448;2023-05-02T14:40:57;17.70;97.00
25949;DHT22;13961;51.178;4.448;2023-05-02T14:43:23;17.60;97.10
25949;DHT22;13961;51.178;4.448;2023-05-02T14:45:49;17.60;96.70
25949;DHT22;13961;51.178;4.448;2023-05-02T14:48:15;17.70;96.50
25949;DHT22;13961;51.178;4.448;2023-05-02T14:50:42;17.80;96.40
25949;DHT22;13961;51.178;4.448;2023-05-02T14:53:08;17.80;97.20
25949;DHT22;13961;51.178;4.448;2023-05-02T14:55:38;17.90;96.00
25949;DHT22;13961;51.178;4.448;2023-05-02T14:58:07;17.80;95.40
25949;DHT22;13961;51.178;4.448;2023-05-02T15:00:35;17.80;95.90
25949;DHT22;13961;51.178;4.448;2023-05-02T15:03:05;17.90;95.70
25949;DHT22;13961;51.178;4.448;2023-05-02T15:05:31;17.80;95.60
25949;DHT22;13961;51.178;4.448;2023-05-02T15:07:57;17.80;95.70
25949;DHT22;13961;51.178;4.448;2023-05-02T15:10:23;17.80;96.20
25949;DHT22;13961;51.178;4.448;2023-05-02T15:12:48;17.90;95.70
25949;DHT22;13961;51.178;4.448;2023-05-02T15:15:17;18.00;95.90
25949;DHT22;13961;51.178;4.448;2023-05-02T15:17:44;18.10;95.20
25949;DHT22;13961;51.178;4.448;2023-05-02T15:20:10;18.20;95.50
25949;DHT22;13961;51.178;4.448;2023-05-02T15:22:36;18.20;95.70
25949;DHT22;13961;51.178;4.448;2023-05-02T15:25:02;18.10;95.50
25949;DHT22;13961;51.178;4.448;2023-05-02T15:27:28;18.10;95.90
25949;DHT22;13961;51.178;4.448;2023-05-02T15:29:54;17.90;95.70
25949;DHT22;13961;51.178;4.448;2023-05-02T15:32:20;17.40;96.40
25949;DHT22;13961;51.178;4.448;2023-05-02T15:34:46;17.30;96.80
25949;DHT22;13961;51.178;4.448;2023-05-02T15:37:12;17.30;96.40
25949;DHT22;13961;51.178;4.448;2023-05-02T15:39:38;17.50;95.90
25949;DHT22;13961;51.178;4.448;2023-05-02T15:42:04;17.50;96.50
25949;DHT22;13961;51.178;4.448;2023-05-02T15:44:34;17.50;96.50
25949;DHT22;13961;51.178;4.448;2023-05-02T15:47:00;17.70;96.10
25949;DHT22;13961;51.178;4.448;2023-05-02T15:49:26;17.70;95.90
25949;DHT22;13961;51.178;4.448;2023-05-02T15:51:57;17.80;95.40
25949;DHT22;13961;51.178;4.448;2023-05-02T15:54:23;17.90;96.40
25949;DHT22;13961;51.178;4.448;2023-05-02T15:56:48;18.00;95.80
25949;DHT22;13961;51.178;4.448;2023-05-02T15:59:14;17.70;96.10
25949;DHT22;13961;51.178;4.448;2023-05-02T16:01:40;17.70;96.60
25949;DHT22;13961;51.178;4.448;2023-05-02T16:04:06;17.90;96.30
25949;DHT22;13961;51.178;4.448;2023-05-02T16:06:34;18.00;96.00
25949;DHT22;13961;51.178;4.448;2023-05-02T16:09:01;17.70;95.80
25949;DHT22;13961;51.178;4.448;2023-05-02T16:11:27;17.60;96.30